sensor_id;sensor_type;location;lat;lon;timestamp;P1;durP1;ratioP1;P2;durP2;ratioP2
41436;SDS011;27178;49.460;10.850;2024-02-23T00:01:29;0.52;;;0.38;;
41436;SDS011;27178;49.460;10.850;2024-02-23T00:03:57;0.38;;;0.35;;
41436;SDS011;27178;49.460;10.850;2024-02-23T00:06:25;0.20;;;0.20;;
41436;SDS011;27178;49.460;10.850;2024-02-23T00:08:54;0.47;;;0.30;;
41436;SDS011;27178;49.460;10.850;2024-02-23T00:11:24;0.20;;;0.20;;
41436;SDS011;27178;49.460;10.850;2024-02-23T00:13:54;0.40;;;0.32;;
41436;SDS011;27178;49.460;10.850;2024-02-23T00:16:22;0.17;;;0.17;;
41436;SDS011;27178;49.460;10.850;2024-02-23T00:18:51;0.28;;;0.28;;
41436;SDS011;27178;49.460;10.850;2024-02-23T00:21:19;0.75;;;0.30;;
41436;SDS011;27178;49.460;10.850;2024-02-23T00:23:48;0.28;;;0.28;;
41436;SDS011;27178;49.460;10.850;2024-02-23T00:26:16;1.23;;;0.30;;
41436;SDS011;27178;49.460;10.850;2024-02-23T00:28:46;0.52;;;0.13;;
41436;SDS011;27178;49.460;10.850;2024-02-23T00:31:14;0.20;;;0.20;;
41436;SDS011;27178;49.460;10.850;2024-02-23T00:33:42;0.13;;;0.13;;
41436;SDS011;27178;49.460;10.850;2024-02-23T00:36:11;0.10;;;0.10;;
41436;SDS011;27178;49.460;10.850;2024-02-23T00:38:39;0.75;;;0.35;;
41436;SDS011;27178;49.460;10.850;2024-02-23T00:41:08;0.30;;;0.30;;
41436;SDS011;27178;49.460;10.850;2024-02-23T00:43:39;2.58;;;0.40;;
41436;SDS011;27178;49.460;10.850;2024-02-23T00:46:09;0.20;;;0.20;;
41436;SDS011;27178;49.460;10.850;2024-02-23T00:48:39;1.05;;;0.30;;
41436;SDS011;27178;49.460;10.850;2024-02-23T00:51:08;1.17;;;0.10;;
41436;SDS011;27178;49.460;10.850;2024-02-23T00:53:36;0.40;;;0.28;;
41436;SDS011;27178;49.460;10.850;2024-02-23T00:56:04;0.57;;;0.20;;
41436;SDS011;27178;49.460;10.850;2024-02-23T00:58:33;0.82;;;0.40;;
41436;SDS011;27178;49.460;10.850;2024-02-23T01:01:02;0.20;;;0.13;;
41436;SDS011;27178;49.460;10.850;2024-02-23T01:03:31;0.68;;;0.32;;
41436;SDS011;27178;49.460;10.850;2024-02-23T01:06:00;0.30;;;0.30;;
41436;SDS011;27178;49.460;10.850;2024-02-23T01:08:28;0.50;;;0.20;;
41436;SDS011;27178;49.460;10.850;2024-02-23T01:10:57;0.80;;;0.25;;
41436;SDS011;27178;49.460;10.850;2024-02-23T01:13:26;0.32;;;0.30;;
41436;SDS011;27178;49.460;10.850;2024-02-23T01:15:54;1.00;;;0.40;;
41436;SDS011;27178;49.460;10.850;2024-02-23T01:18:22;0.38;;;0.25;;
41436;SDS011;27178;49.460;10.850;2024-02-23T01:20:52;0.32;;;0.30;;
41436;SDS011;27178;49.460;10.850;2024-02-23T01:23:23;1.27;;;0.47;;
41436;SDS011;27178;49.460;10.850;2024-02-23T01:25:51;0.50;;;0.50;;
41436;SDS011;27178;49.460;10.850;2024-02-23T01:28:20;0.30;;;0.28;;
41436;SDS011;27178;49.460;10.850;2024-02-23T01:30:48;0.82;;;0.40;;
41436;SDS011;27178;49.460;10.850;2024-02-23T01:33:17;0.30;;;0.30;;
41436;SDS011;27178;49.460;10.850;2024-02-23T01:35:45;2.10;;;0.70;;
41436;SDS011;27178;49.460;10.850;2024-02-23T01:38:15;0.35;;;0.32;;
41436;SDS011;27178;49.460;10.850;2024-02-23T01:40:47;0.45;;;0.40;;
41436;SDS011;27178;49.460;10.850;2024-02-23T01:43:15;0.70;;;0.25;;
41436;SDS011;27178;49.460;10.850;2024-02-23T01:45:44;0.55;;;0.20;;
41436;SDS011;27178;49.460;10.850;2024-02-23T01:48:12;0.63;;;0.47;;
41436;SDS011;27178;49.460;10.850;2024-02-23T01:50:41;0.30;;;0.30;;
41436;SDS011;27178;49.460;10.850;2024-02-23T01:53:10;0.47;;;0.40;;
41436;SDS011;27178;49.460;10.850;2024-02-23T01:55:41;0.30;;;0.30;;
41436;SDS011;27178;49.460;10.850;2024-02-23T01:58:11;0.63;;;0.40;;
41436;SDS011;27178;49.460;10.850;2024-02-23T02:00:40;0.70;;;0.55;;
41436;SDS011;27178;49.460;10.850;2024-02-23T02:03:08;0.60;;;0.60;;
41436;SDS011;27178;49.460;10.850;2024-02-23T02:05:38;0.55;;;0.55;;
41436;SDS011;27178;49.460;10.850;2024-02-23T02:08:07;0.75;;;0.60;;
41436;SDS011;27178;49.460;10.850;2024-02-23T02:10:35;0.82;;;0.70;;
41436;SDS011;27178;49.460;10.850;2024-02-23T02:13:05;2.20;;;0.98;;
41436;SDS011;27178;49.460;10.850;2024-02-23T02:15:33;0.68;;;0.57;;
41436;SDS011;27178;49.460;10.850;2024-02-23T02:20:50;0.60;;;0.50;;
41436;SDS011;27178;49.460;10.850;2024-02-23T02:23:20;0.98;;;0.60;;
41436;SDS011;27178;49.460;10.850;2024-02-23T02:25:52;1.90;;;0.70;;
41436;SDS011;27178;49.460;10.850;2024-02-23T02:28:22;2.28;;;0.85;;
41436;SDS011;27178;49.460;10.850;2024-02-23T02:30:51;0.38;;;0.38;;
41436;SDS011;27178;49.460;10.850;2024-02-23T02:33:20;1.05;;;0.60;;
41436;SDS011;27178;49.460;10.850;2024-02-23T02:35:49;1.20;;;0.70;;
41436;SDS011;27178;49.460;10.850;2024-02-23T02:38:17;1.77;;;0.90;;
41436;SDS011;27178;49.460;10.850;2024-02-23T02:40:46;2.38;;;0.60;;
41436;SDS011;27178;49.460;10.850;2024-02-23T02:43:14;2.13;;;0.80;;
41436;SDS011;27178;49.460;10.850;2024-02-23T02:45:44;1.05;;;0.77;;
41436;SDS011;27178;49.460;10.850;2024-02-23T02:48:13;0.93;;;0.70;;
41436;SDS011;27178;49.460;10.850;2024-02-23T02:50:41;2.67;;;0.70;;
41436;SDS011;27178;49.460;10.850;2024-02-23T02:53:10;1.00;;;0.70;;
41436;SDS011;27178;49.460;10.850;2024-02-23T02:55:40;3.08;;;0.80;;
41436;SDS011;27178;49.460;10.850;2024-02-23T02:58:11;2.30;;;1.00;;
41436;SDS011;27178;49.460;10.850;2024-02-23T03:00:39;6.10;;;1.45;;
41436;SDS011;27178;49.460;10.850;2024-02-23T03:03:09;2.67;;;0.85;;
41436;SDS011;27178;49.460;10.850;2024-02-23T03:05:39;2.42;;;1.10;;
41436;SDS011;27178;49.460;10.850;2024-02-23T03:08:07;1.77;;;0.77;;
41436;SDS011;27178;49.460;10.850;2024-02-23T03:10:36;1.45;;;0.60;;
41436;SDS011;27178;49.460;10.850;2024-02-23T03:13:04;1.60;;;0.82;;
41436;SDS011;27178;49.460;10.850;2024-02-23T03:15:32;2.15;;;1.05;;
41436;SDS011;27178;49.460;10.850;2024-02-23T03:18:00;0.93;;;0.60;;
41436;SDS011;27178;49.460;10.850;2024-02-23T03:20:30;2.67;;;1.13;;
41436;SDS011;27178;49.460;10.850;2024-02-23T03:22:59;1.77;;;1.05;;
41436;SDS011;27178;49.460;10.850;2024-02-23T03:25:27;2.80;;;0.75;;
41436;SDS011;27178;49.460;10.850;2024-02-23T03:27:56;1.55;;;0.70;;
41436;SDS011;27178;49.460;10.850;2024-02-23T03:30:24;2.00;;;0.90;;
41436;SDS011;27178;49.460;10.850;2024-02-23T03:32:52;1.10;;;0.50;;
41436;SDS011;27178;49.460;10.850;2024-02-23T03:35:21;1.92;;;0.80;;
41436;SDS011;27178;49.460;10.850;2024-02-23T03:37:50;2.88;;;1.10;;
41436;SDS011;27178;49.460;10.850;2024-02-23T03:40:19;1.15;;;1.00;;
41436;SDS011;27178;49.460;10.850;2024-02-23T03:42:47;1.10;;;0.80;;
41436;SDS011;27178;49.460;10.850;2024-02-23T03:45:15;1.83;;;1.05;;
41436;SDS011;27178;49.460;10.850;2024-02-23T03:47:44;3.60;;;0.80;;
41436;SDS011;27178;49.460;10.850;2024-02-23T03:50:12;1.65;;;1.00;;
41436;SDS011;27178;49.460;10.850;2024-02-23T03:52:41;2.47;;;0.82;;
41436;SDS011;27178;49.460;10.850;2024-02-23T03:55:11;0.77;;;0.60;;
41436;SDS011;27178;49.460;10.850;2024-02-23T03:57:39;1.75;;;1.20;;
41436;SDS011;27178;49.460;10.850;2024-02-23T04:00:11;2.58;;;1.17;;
41436;SDS011;27178;49.460;10.850;2024-02-23T04:02:40;1.75;;;0.93;;
41436;SDS011;27178;49.460;10.850;2024-02-23T04:05:09;2.47;;;1.15;;
41436;SDS011;27178;49.460;10.850;2024-02-23T04:07:37;1.35;;;0.90;;
41436;SDS011;27178;49.460;10.850;2024-02-23T04:10:06;1.83;;;1.15;;
41436;SDS011;27178;49.460;10.850;2024-02-23T04:12:36;3.10;;;0.95;;
41436;SDS011;27178;49.460;10.850;2024-02-23T04:15:04;1.83;;;0.80;;
41436;SDS011;27178;49.460;10.850;2024-02-23T04:17:33;1.65;;;1.20;;
41436;SDS011;27178;49.460;10.850;2024-02-23T04:20:05;1.75;;;1.00;;
41436;SDS011;27178;49.460;10.850;2024-02-23T04:22:36;2.92;;;1.10;;
41436;SDS011;27178;49.460;10.850;2024-02-23T04:25:04;1.20;;;0.90;;
41436;SDS011;27178;49.460;10.850;2024-02-23T04:27:33;3.50;;;1.13;;
41436;SDS011;27178;49.460;10.850;2024-02-23T04:30:02;1.23;;;0.90;;
41436;SDS011;27178;49.460;10.850;2024-02-23T04:32:31;2.20;;;1.15;;
41436;SDS011;27178;49.460;10.850;2024-02-23T04:35:00;1.63;;;0.82;;
41436;SDS011;27178;49.460;10.850;2024-02-23T04:37:28;2.80;;;1.15;;
41436;SDS011;27178;49.460;10.850;2024-02-23T04:40:01;3.33;;;1.23;;
41436;SDS011;27178;49.460;10.850;2024-02-23T04:42:31;2.17;;;0.80;;
41436;SDS011;27178;49.460;10.850;2024-02-23T04:44:59;2.75;;;1.00;;
41436;SDS011;27178;49.460;10.850;2024-02-23T04:47:29;2.85;;;0.65;;
41436;SDS011;27178;49.460;10.850;2024-02-23T04:49:57;1.23;;;0.80;;
41436;SDS011;27178;49.460;10.850;2024-02-23T04:52:26;2.17;;;1.10;;
41436;SDS011;27178;49.460;10.850;2024-02-23T04:54:54;2.50;;;0.93;;
41436;SDS011;27178;49.460;10.850;2024-02-23T04:57:22;2.38;;;1.23;;
41436;SDS011;27178;49.460;10.850;2024-02-23T04:59:50;1.83;;;0.90;;
41436;SDS011;27178;49.460;10.850;2024-02-23T05:02:19;1.83;;;1.00;;
41436;SDS011;27178;49.460;10.850;2024-02-23T05:04:48;2.60;;;0.95;;
41436;SDS011;27178;49.460;10.850;2024-02-23T05:07:17;2.20;;;1.00;;
41436;SDS011;27178;49.460;10.850;2024-02-23T05:09:45;2.10;;;0.90;;
41436;SDS011;27178;49.460;10.850;2024-02-23T05:12:14;1.23;;;0.88;;
41436;SDS011;27178;49.460;10.850;2024-02-23T05:14:43;1.75;;;1.00;;
41436;SDS011;27178;49.460;10.850;2024-02-23T05:17:11;5.18;;;1.00;;
41436;SDS011;27178;49.460;10.850;2024-02-23T05:19:39;1.70;;;0.95;;
41436;SDS011;27178;49.460;10.850;2024-02-23T05:22:09;1.70;;;0.82;;
41436;SDS011;27178;49.460;10.850;2024-02-23T05:24:37;2.58;;;0.82;;
41436;SDS011;27178;49.460;10.850;2024-02-23T05:27:05;1.42;;;0.70;;
41436;SDS011;27178;49.460;10.850;2024-02-23T05:29:34;1.40;;;0.80;;
41436;SDS011;27178;49.460;10.850;2024-02-23T05:32:02;1.50;;;0.85;;
41436;SDS011;27178;49.460;10.850;2024-02-23T05:34:31;1.05;;;0.90;;
41436;SDS011;27178;49.460;10.850;2024-02-23T05:36:59;1.38;;;0.82;;
41436;SDS011;27178;49.460;10.850;2024-02-23T05:39:29;4.47;;;1.20;;
41436;SDS011;27178;49.460;10.850;2024-02-23T05:41:57;2.50;;;1.15;;
41436;SDS011;27178;49.460;10.850;2024-02-23T05:44:26;1.63;;;0.82;;
41436;SDS011;27178;49.460;10.850;2024-02-23T05:46:55;1.13;;;1.03;;
41436;SDS011;27178;49.460;10.850;2024-02-23T05:49:23;1.50;;;1.27;;
41436;SDS011;27178;49.460;10.850;2024-02-23T05:51:51;1.58;;;1.10;;
41436;SDS011;27178;49.460;10.850;2024-02-23T05:54:20;1.30;;;0.88;;
41436;SDS011;27178;49.460;10.850;2024-02-23T05:56:49;1.50;;;1.20;;
41436;SDS011;27178;49.460;10.850;2024-02-23T05:59:18;1.33;;;0.98;;
41436;SDS011;27178;49.460;10.850;2024-02-23T06:01:46;1.40;;;0.85;;
41436;SDS011;27178;49.460;10.850;2024-02-23T06:04:14;2.42;;;1.02;;
41436;SDS011;27178;49.460;10.850;2024-02-23T06:06:43;1.30;;;0.90;;
41436;SDS011;27178;49.460;10.850;2024-02-23T06:09:11;0.88;;;0.77;;
41436;SDS011;27178;49.460;10.850;2024-02-23T06:11:40;1.73;;;1.23;;
41436;SDS011;27178;49.460;10.850;2024-02-23T06:14:10;2.10;;;1.00;;
41436;SDS011;27178;49.460;10.850;2024-02-23T06:16:38;1.90;;;1.00;;
41436;SDS011;27178;49.460;10.850;2024-02-23T06:19:08;3.10;;;1.23;;
41436;SDS011;27178;49.460;10.850;2024-02-23T06:21:36;1.40;;;0.77;;
41436;SDS011;27178;49.460;10.850;2024-02-23T06:24:05;1.02;;;0.80;;
41436;SDS011;27178;49.460;10.850;2024-02-23T06:26:34;2.28;;;1.35;;
41436;SDS011;27178;49.460;10.850;2024-02-23T06:29:03;2.70;;;0.90;;
41436;SDS011;27178;49.460;10.850;2024-02-23T06:31:33;3.42;;;1.02;;
41436;SDS011;27178;49.460;10.850;2024-02-23T06:34:02;1.65;;;0.82;;
41436;SDS011;27178;49.460;10.850;2024-02-23T06:36:30;1.30;;;0.73;;
41436;SDS011;27178;49.460;10.850;2024-02-23T06:38:59;0.95;;;0.80;;
41436;SDS011;27178;49.460;10.850;2024-02-23T06:41:27;2.10;;;1.05;;
41436;SDS011;27178;49.460;10.850;2024-02-23T06:43:55;1.52;;;0.90;;
41436;SDS011;27178;49.460;10.850;2024-02-23T06:46:24;1.80;;;1.05;;
41436;SDS011;27178;49.460;10.850;2024-02-23T06:48:53;1.30;;;0.90;;
41436;SDS011;27178;49.460;10.850;2024-02-23T06:51:22;2.65;;;1.00;;
41436;SDS011;27178;49.460;10.850;2024-02-23T06:53:50;1.90;;;0.73;;
41436;SDS011;27178;49.460;10.850;2024-02-23T06:56:18;1.63;;;0.57;;
41436;SDS011;27178;49.460;10.850;2024-02-23T06:58:48;2.10;;;0.90;;
41436;SDS011;27178;49.460;10.850;2024-02-23T07:01:17;1.60;;;1.00;;
41436;SDS011;27178;49.460;10.850;2024-02-23T07:03:47;2.83;;;1.23;;
41436;SDS011;27178;49.460;10.850;2024-02-23T07:06:18;4.25;;;1.00;;
41436;SDS011;27178;49.460;10.850;2024-02-23T07:08:47;0.73;;;0.73;;
41436;SDS011;27178;49.460;10.850;2024-02-23T07:11:15;4.00;;;0.98;;
41436;SDS011;27178;49.460;10.850;2024-02-23T07:13:43;3.20;;;1.00;;
41436;SDS011;27178;49.460;10.850;2024-02-23T07:16:11;2.15;;;1.30;;
41436;SDS011;27178;49.460;10.850;2024-02-23T07:18:40;1.77;;;1.02;;
41436;SDS011;27178;49.460;10.850;2024-02-23T07:21:08;2.15;;;1.00;;
41436;SDS011;27178;49.460;10.850;2024-02-23T07:23:38;2.75;;;1.25;;
41436;SDS011;27178;49.460;10.850;2024-02-23T07:26:06;2.10;;;0.80;;
41436;SDS011;27178;49.460;10.850;2024-02-23T07:28:34;3.53;;;0.90;;
41436;SDS011;27178;49.460;10.850;2024-02-23T07:31:03;3.55;;;1.10;;
41436;SDS011;27178;49.460;10.850;2024-02-23T07:33:31;3.72;;;1.10;;
41436;SDS011;27178;49.460;10.850;2024-02-23T07:36:00;1.58;;;1.13;;
41436;SDS011;27178;49.460;10.850;2024-02-23T07:38:28;1.33;;;0.98;;
41436;SDS011;27178;49.460;10.850;2024-02-23T07:40:58;2.33;;;0.80;;
41436;SDS011;27178;49.460;10.850;2024-02-23T07:43:26;2.13;;;1.13;;
41436;SDS011;27178;49.460;10.850;2024-02-23T07:45:55;1.60;;;0.98;;
41436;SDS011;27178;49.460;10.850;2024-02-23T07:48:24;1.83;;;1.10;;
41436;SDS011;27178;49.460;10.850;2024-02-23T07:50:52;1.75;;;1.05;;
41436;SDS011;27178;49.460;10.850;2024-02-23T07:53:21;2.00;;;1.45;;
41436;SDS011;27178;49.460;10.850;2024-02-23T07:55:49;2.53;;;2.00;;
41436;SDS011;27178;49.460;10.850;2024-02-23T07:58:19;3.85;;;1.70;;
41436;SDS011;27178;49.460;10.850;2024-02-23T08:00:47;1.50;;;1.23;;
41436;SDS011;27178;49.460;10.850;2024-02-23T08:03:16;1.70;;;1.35;;
41436;SDS011;27178;49.460;10.850;2024-02-23T08:05:44;3.20;;;1.83;;
41436;SDS011;27178;49.460;10.850;2024-02-23T08:08:12;2.05;;;1.48;;
41436;SDS011;27178;49.460;10.850;2024-02-23T08:10:41;2.00;;;1.30;;
41436;SDS011;27178;49.460;10.850;2024-02-23T08:13:09;2.95;;;1.25;;
41436;SDS011;27178;49.460;10.850;2024-02-23T08:15:39;2.38;;;1.17;;
41436;SDS011;27178;49.460;10.850;2024-02-23T08:18:07;1.90;;;1.27;;
41436;SDS011;27178;49.460;10.850;2024-02-23T08:20:37;3.92;;;1.30;;
41436;SDS011;27178;49.460;10.850;2024-02-23T08:23:05;0.95;;;0.85;;
41436;SDS011;27178;49.460;10.850;2024-02-23T08:25:35;1.58;;;1.00;;
41436;SDS011;27178;49.460;10.850;2024-02-23T08:28:04;1.40;;;1.08;;
41436;SDS011;27178;49.460;10.850;2024-02-23T08:30:33;2.85;;;1.25;;
41436;SDS011;27178;49.460;10.850;2024-02-23T08:33:03;2.83;;;1.20;;
41436;SDS011;27178;49.460;10.850;2024-02-23T08:35:31;1.42;;;0.90;;
41436;SDS011;27178;49.460;10.850;2024-02-23T08:38:00;1.65;;;1.10;;
41436;SDS011;27178;49.460;10.850;2024-02-23T08:40:29;1.30;;;0.73;;
41436;SDS011;27178;49.460;10.850;2024-02-23T08:42:57;1.88;;;1.20;;
41436;SDS011;27178;49.460;10.850;2024-02-23T08:45:26;2.15;;;0.93;;
41436;SDS011;27178;49.460;10.850;2024-02-23T08:47:54;2.27;;;1.10;;
41436;SDS011;27178;49.460;10.850;2024-02-23T08:50:24;1.90;;;1.30;;
41436;SDS011;27178;49.460;10.850;2024-02-23T08:52:52;0.95;;;0.88;;
41436;SDS011;27178;49.460;10.850;2024-02-23T08:55:20;1.33;;;0.82;;
41436;SDS011;27178;49.460;10.850;2024-02-23T08:57:49;2.70;;;1.08;;
41436;SDS011;27178;49.460;10.850;2024-02-23T09:00:18;1.88;;;1.30;;
41436;SDS011;27178;49.460;10.850;2024-02-23T09:02:46;1.23;;;0.75;;
41436;SDS011;27178;49.460;10.850;2024-02-23T09:05:16;1.08;;;0.85;;
41436;SDS011;27178;49.460;10.850;2024-02-23T09:07:47;1.67;;;1.05;;
41436;SDS011;27178;49.460;10.850;2024-02-23T09:10:15;1.60;;;0.98;;
41436;SDS011;27178;49.460;10.850;2024-02-23T09:12:44;1.30;;;0.80;;
41436;SDS011;27178;49.460;10.850;2024-02-23T09:15:12;2.40;;;1.05;;
41436;SDS011;27178;49.460;10.850;2024-02-23T09:17:40;1.73;;;1.02;;
41436;SDS011;27178;49.460;10.850;2024-02-23T09:20:10;2.05;;;1.45;;
41436;SDS011;27178;49.460;10.850;2024-02-23T09:22:39;1.23;;;0.88;;
41436;SDS011;27178;49.460;10.850;2024-02-23T09:25:09;0.93;;;0.75;;
41436;SDS011;27178;49.460;10.850;2024-02-23T09:27:37;1.63;;;1.10;;
41436;SDS011;27178;49.460;10.850;2024-02-23T09:30:10;1.67;;;1.20;;
41436;SDS011;27178;49.460;10.850;2024-02-23T09:32:39;1.08;;;0.98;;
41436;SDS011;27178;49.460;10.850;2024-02-23T09:35:08;1.23;;;1.10;;
41436;SDS011;27178;49.460;10.850;2024-02-23T09:37:37;1.15;;;0.82;;
41436;SDS011;27178;49.460;10.850;2024-02-23T09:40:07;2.35;;;0.95;;
41436;SDS011;27178;49.460;10.850;2024-02-23T09:42:37;1.40;;;0.82;;
41436;SDS011;27178;49.460;10.850;2024-02-23T09:45:06;0.90;;;0.80;;
41436;SDS011;27178;49.460;10.850;2024-02-23T09:47:35;1.40;;;0.70;;
41436;SDS011;27178;49.460;10.850;2024-02-23T09:50:04;1.40;;;1.02;;
41436;SDS011;27178;49.460;10.850;2024-02-23T09:52:34;1.73;;;0.90;;
41436;SDS011;27178;49.460;10.850;2024-02-23T09:55:03;0.70;;;0.60;;
41436;SDS011;27178;49.460;10.850;2024-02-23T09:57:33;2.70;;;1.00;;
41436;SDS011;27178;49.460;10.850;2024-02-23T10:00:05;2.45;;;1.15;;
41436;SDS011;27178;49.460;10.850;2024-02-23T10:02:36;1.60;;;1.00;;
41436;SDS011;27178;49.460;10.850;2024-02-23T10:05:05;0.85;;;0.80;;
41436;SDS011;27178;49.460;10.850;2024-02-23T10:07:36;0.80;;;0.80;;
41436;SDS011;27178;49.460;10.850;2024-02-23T10:10:06;2.15;;;1.23;;
41436;SDS011;27178;49.460;10.850;2024-02-23T10:12:36;2.13;;;0.90;;
41436;SDS011;27178;49.460;10.850;2024-02-23T10:15:06;1.55;;;0.80;;
41436;SDS011;27178;49.460;10.850;2024-02-23T10:17:34;1.83;;;0.90;;
41436;SDS011;27178;49.460;10.850;2024-02-23T10:20:03;1.35;;;0.90;;
41436;SDS011;27178;49.460;10.850;2024-02-23T10:22:32;0.82;;;0.73;;
41436;SDS011;27178;49.460;10.850;2024-02-23T10:25:01;0.93;;;0.80;;
41436;SDS011;27178;49.460;10.850;2024-02-23T10:27:31;1.48;;;0.68;;
41436;SDS011;27178;49.460;10.850;2024-02-23T10:30:01;1.45;;;1.00;;
41436;SDS011;27178;49.460;10.850;2024-02-23T10:32:31;1.73;;;1.00;;
41436;SDS011;27178;49.460;10.850;2024-02-23T10:35:02;1.13;;;0.90;;
41436;SDS011;27178;49.460;10.850;2024-02-23T10:37:31;4.20;;;1.30;;
41436;SDS011;27178;49.460;10.850;2024-02-23T10:40:02;1.30;;;0.80;;
41436;SDS011;27178;49.460;10.850;2024-02-23T10:42:35;1.58;;;0.93;;
41436;SDS011;27178;49.460;10.850;2024-02-23T10:45:07;0.80;;;0.80;;
41436;SDS011;27178;49.460;10.850;2024-02-23T10:47:36;0.80;;;0.80;;
41436;SDS011;27178;49.460;10.850;2024-02-23T10:50:05;2.13;;;1.35;;
41436;SDS011;27178;49.460;10.850;2024-02-23T10:52:35;2.33;;;0.98;;
41436;SDS011;27178;49.460;10.850;2024-02-23T10:55:04;1.48;;;0.65;;
41436;SDS011;27178;49.460;10.850;2024-02-23T10:57:35;1.02;;;0.82;;
41436;SDS011;27178;49.460;10.850;2024-02-23T11:00:04;1.60;;;0.75;;
41436;SDS011;27178;49.460;10.850;2024-02-23T11:02:38;1.70;;;1.05;;
41436;SDS011;27178;49.460;10.850;2024-02-23T11:05:11;0.95;;;0.80;;
41436;SDS011;27178;49.460;10.850;2024-02-23T11:07:42;2.22;;;0.93;;
41436;SDS011;27178;49.460;10.850;2024-02-23T11:10:15;1.30;;;1.00;;
41436;SDS011;27178;49.460;10.850;2024-02-23T11:12:44;3.15;;;1.27;;
41436;SDS011;27178;49.460;10.850;2024-02-23T11:15:26;0.80;;;0.77;;
41436;SDS011;27178;49.460;10.850;2024-02-23T11:17:55;1.70;;;1.23;;
41436;SDS011;27178;49.460;10.850;2024-02-23T11:20:24;1.50;;;1.25;;
41436;SDS011;27178;49.460;10.850;2024-02-23T11:23:12;3.38;;;0.88;;
41436;SDS011;27178;49.460;10.850;2024-02-23T11:25:41;1.67;;;0.90;;
41436;SDS011;27178;49.460;10.850;2024-02-23T11:28:20;1.25;;;1.00;;
41436;SDS011;27178;49.460;10.850;2024-02-23T11:30:51;0.90;;;0.70;;
41436;SDS011;27178;49.460;10.850;2024-02-23T11:33:27;1.58;;;0.82;;
41436;SDS011;27178;49.460;10.850;2024-02-23T11:36:05;1.35;;;1.20;;
41436;SDS011;27178;49.460;10.850;2024-02-23T11:38:34;1.33;;;0.80;;
41436;SDS011;27178;49.460;10.850;2024-02-23T11:41:03;1.85;;;0.77;;
41436;SDS011;27178;49.460;10.850;2024-02-23T11:43:33;0.73;;;0.57;;
41436;SDS011;27178;49.460;10.850;2024-02-23T11:46:04;3.13;;;0.88;;
41436;SDS011;27178;49.460;10.850;2024-02-23T11:48:32;1.77;;;0.70;;
41436;SDS011;27178;49.460;10.850;2024-02-23T11:51:00;2.28;;;1.30;;
41436;SDS011;27178;49.460;10.850;2024-02-23T11:53:29;1.60;;;1.50;;
41436;SDS011;27178;49.460;10.850;2024-02-23T11:55:57;2.45;;;1.50;;
41436;SDS011;27178;49.460;10.850;2024-02-23T11:58:26;2.67;;;1.70;;
41436;SDS011;27178;49.460;10.850;2024-02-23T12:00:54;1.80;;;1.35;;
41436;SDS011;27178;49.460;10.850;2024-02-23T12:03:24;1.35;;;1.17;;
41436;SDS011;27178;49.460;10.850;2024-02-23T12:05:54;1.58;;;1.20;;
41436;SDS011;27178;49.460;10.850;2024-02-23T12:08:24;3.15;;;1.63;;
41436;SDS011;27178;49.460;10.850;2024-02-23T12:10:53;2.30;;;1.50;;
41436;SDS011;27178;49.460;10.850;2024-02-23T12:13:22;2.55;;;1.38;;
41436;SDS011;27178;49.460;10.850;2024-02-23T12:15:52;1.20;;;0.90;;
41436;SDS011;27178;49.460;10.850;2024-02-23T12:18:21;1.15;;;1.05;;
41436;SDS011;27178;49.460;10.850;2024-02-23T12:20:52;1.38;;;1.00;;
41436;SDS011;27178;49.460;10.850;2024-02-23T12:23:21;2.63;;;1.40;;
41436;SDS011;27178;49.460;10.850;2024-02-23T12:25:52;2.08;;;0.98;;
41436;SDS011;27178;49.460;10.850;2024-02-23T12:28:22;1.33;;;0.85;;
41436;SDS011;27178;49.460;10.850;2024-02-23T12:30:59;5.95;;;1.05;;
41436;SDS011;27178;49.460;10.850;2024-02-23T12:33:30;0.82;;;0.80;;
41436;SDS011;27178;49.460;10.850;2024-02-23T12:36:01;1.52;;;0.60;;
41436;SDS011;27178;49.460;10.850;2024-02-23T12:38:31;1.08;;;1.02;;
41436;SDS011;27178;49.460;10.850;2024-02-23T12:41:00;2.38;;;1.27;;
41436;SDS011;27178;49.460;10.850;2024-02-23T12:43:30;0.65;;;0.63;;
41436;SDS011;27178;49.460;10.850;2024-02-23T12:45:58;1.42;;;1.05;;
41436;SDS011;27178;49.460;10.850;2024-02-23T12:48:29;1.10;;;0.70;;
41436;SDS011;27178;49.460;10.850;2024-02-23T12:50:57;1.42;;;0.90;;
41436;SDS011;27178;49.460;10.850;2024-02-23T12:53:32;0.70;;;0.68;;
41436;SDS011;27178;49.460;10.850;2024-02-23T12:56:03;2.30;;;0.95;;
41436;SDS011;27178;49.460;10.850;2024-02-23T12:58:34;1.50;;;0.63;;
41436;SDS011;27178;49.460;10.850;2024-02-23T13:01:03;0.77;;;0.77;;
41436;SDS011;27178;49.460;10.850;2024-02-23T13:03:34;0.85;;;0.57;;
41436;SDS011;27178;49.460;10.850;2024-02-23T13:06:03;1.38;;;0.85;;
41436;SDS011;27178;49.460;10.850;2024-02-23T13:08:32;1.20;;;0.80;;
41436;SDS011;27178;49.460;10.850;2024-02-23T13:11:02;1.05;;;0.68;;
41436;SDS011;27178;49.460;10.850;2024-02-23T13:13:31;1.40;;;0.52;;
41436;SDS011;27178;49.460;10.850;2024-02-23T13:15:59;0.75;;;0.70;;
41436;SDS011;27178;49.460;10.850;2024-02-23T13:18:28;1.40;;;0.90;;
41436;SDS011;27178;49.460;10.850;2024-02-23T13:20:57;1.40;;;0.70;;
41436;SDS011;27178;49.460;10.850;2024-02-23T13:23:26;2.22;;;0.85;;
41436;SDS011;27178;49.460;10.850;2024-02-23T13:25:54;1.30;;;0.60;;
41436;SDS011;27178;49.460;10.850;2024-02-23T13:28:23;0.82;;;0.70;;
41436;SDS011;27178;49.460;10.850;2024-02-23T13:30:51;2.75;;;1.33;;
41436;SDS011;27178;49.460;10.850;2024-02-23T13:33:19;0.75;;;0.73;;
41436;SDS011;27178;49.460;10.850;2024-02-23T13:35:48;2.03;;;0.82;;
41436;SDS011;27178;49.460;10.850;2024-02-23T13:38:18;1.98;;;0.88;;
41436;SDS011;27178;49.460;10.850;2024-02-23T13:40:47;1.98;;;1.30;;
41436;SDS011;27178;49.460;10.850;2024-02-23T13:43:15;1.15;;;0.95;;
41436;SDS011;27178;49.460;10.850;2024-02-23T13:45:47;1.15;;;1.05;;
41436;SDS011;27178;49.460;10.850;2024-02-23T13:48:17;1.05;;;0.63;;
41436;SDS011;27178;49.460;10.850;2024-02-23T13:50:46;6.07;;;0.80;;
41436;SDS011;27178;49.460;10.850;2024-02-23T13:53:15;1.23;;;0.70;;
41436;SDS011;27178;49.460;10.850;2024-02-23T13:55:45;1.42;;;1.08;;
41436;SDS011;27178;49.460;10.850;2024-02-23T13:58:14;1.45;;;1.00;;
41436;SDS011;27178;49.460;10.850;2024-02-23T14:00:43;0.80;;;0.70;;
41436;SDS011;27178;49.460;10.850;2024-02-23T14:03:15;1.33;;;0.65;;
41436;SDS011;27178;49.460;10.850;2024-02-23T14:05:45;2.33;;;0.60;;
41436;SDS011;27178;49.460;10.850;2024-02-23T14:08:14;0.88;;;0.50;;
41436;SDS011;27178;49.460;10.850;2024-02-23T14:10:42;1.48;;;0.70;;
41436;SDS011;27178;49.460;10.850;2024-02-23T14:13:13;1.33;;;0.88;;
41436;SDS011;27178;49.460;10.850;2024-02-23T14:15:42;1.42;;;1.13;;
41436;SDS011;27178;49.460;10.850;2024-02-23T14:18:11;1.40;;;0.90;;
41436;SDS011;27178;49.460;10.850;2024-02-23T14:20:39;1.17;;;0.93;;
41436;SDS011;27178;49.460;10.850;2024-02-23T14:23:08;1.00;;;0.80;;
41436;SDS011;27178;49.460;10.850;2024-02-23T14:25:36;1.25;;;0.80;;
41436;SDS011;27178;49.460;10.850;2024-02-23T14:28:04;1.63;;;1.08;;
41436;SDS011;27178;49.460;10.850;2024-02-23T14:30:34;1.48;;;1.25;;
41436;SDS011;27178;49.460;10.850;2024-02-23T14:33:02;1.65;;;1.30;;
41436;SDS011;27178;49.460;10.850;2024-02-23T14:35:31;2.58;;;1.98;;
41436;SDS011;27178;49.460;10.850;2024-02-23T14:37:59;2.42;;;1.50;;
41436;SDS011;27178;49.460;10.850;2024-02-23T14:40:27;1.88;;;1.65;;
41436;SDS011;27178;49.460;10.850;2024-02-23T14:42:56;1.48;;;1.25;;
41436;SDS011;27178;49.460;10.850;2024-02-23T14:45:25;1.42;;;1.27;;
41436;SDS011;27178;49.460;10.850;2024-02-23T14:47:56;1.38;;;1.27;;